createdAt,value
2022-09-07T00:01:04.197Z,15.80
2022-09-07T00:03:31.290Z,15.70
2022-09-07T00:05:58.267Z,15.80
2022-09-07T00:08:27.344Z,15.70
2022-09-07T00:11:02.083Z,15.70
2022-09-07T00:13:34.044Z,15.70
2022-09-07T00:16:18.232Z,15.70
2022-09-07T00:18:46.463Z,15.60
2022-09-07T00:21:16.769Z,15.60
2022-09-07T00:23:44.350Z,15.60
2022-09-07T00:26:15.843Z,15.60
2022-09-07T00:28:43.909Z,15.60
2022-09-07T00:31:14.671Z,15.60
2022-09-07T00:33:42.229Z,15.60
2022-09-07T00:36:09.165Z,15.50
2022-09-07T00:38:36.921Z,15.50
2022-09-07T00:41:04.267Z,15.50
2022-09-07T00:43:42.876Z,15.50
2022-09-07T00:46:20.087Z,15.40
2022-09-07T00:49:12.055Z,15.40
2022-09-07T00:51:57.845Z,15.40
2022-09-07T00:54:36.113Z,15.50
2022-09-07T00:57:04.241Z,15.40
2022-09-07T00:59:43.721Z,15.40
2022-09-07T01:02:12.709Z,15.40
2022-09-07T01:04:40.680Z,15.30
2022-09-07T01:07:08.791Z,15.30
2022-09-07T01:09:36.483Z,15.30
2022-09-07T01:12:04.586Z,15.30
2022-09-07T01:14:39.879Z,15.30
2022-09-07T01:17:12.422Z,15.30
2022-09-07T01:20:21.445Z,15.30
2022-09-07T01:23:25.002Z,15.30
2022-09-07T01:26:16.667Z,15.20
2022-09-07T01:28:47.234Z,15.20
2022-09-07T01:31:49.513Z,15.20
2022-09-07T01:34:26.102Z,15.20
2022-09-07T01:37:32.682Z,15.20
2022-09-07T01:40:22.912Z,15.10
2022-09-07T01:43:01.163Z,15.10
2022-09-07T01:45:34.788Z,15.10
2022-09-07T01:48:07.328Z,15.00
2022-09-07T01:50:57.828Z,15.00
2022-09-07T01:53:39.911Z,15.00
2022-09-07T01:56:15.530Z,15.00
2022-09-07T01:59:01.622Z,15.00
2022-09-07T02:01:47.071Z,15.00
2022-09-07T02:04:24.622Z,14.90
2022-09-07T02:07:05.475Z,14.90
2022-09-07T02:09:59.287Z,14.90
2022-09-07T02:12:44.326Z,14.90
2022-09-07T02:15:28.151Z,14.90
2022-09-07T02:18:04.376Z,14.90
2022-09-07T02:20:37.594Z,14.80
2022-09-07T02:23:20.121Z,14.80
2022-09-07T02:25:55.814Z,14.80
2022-09-07T02:28:29.192Z,14.80
2022-09-07T02:30:56.309Z,14.70
2022-09-07T02:33:23.331Z,14.70
2022-09-07T02:35:51.198Z,14.70
2022-09-07T02:38:19.103Z,14.70
2022-09-07T02:41:00.264Z,14.70
2022-09-07T02:43:29.445Z,14.70
2022-09-07T02:46:22.411Z,14.70
2022-09-07T02:49:26.437Z,14.70
2022-09-07T02:52:18.180Z,14.70
2022-09-07T02:55:15.888Z,14.60
2022-09-07T02:57:45.419Z,14.60
2022-09-07T03:00:20.818Z,14.60
2022-09-07T03:03:23.825Z,14.50
2022-09-07T03:06:38.252Z,14.60
2022-09-07T03:09:15.047Z,14.60
2022-09-07T03:11:42.110Z,14.60
2022-09-07T03:14:20.345Z,14.50
2022-09-07T03:16:50.798Z,14.50
2022-09-07T03:19:18.614Z,14.50
2022-09-07T03:21:45.606Z,14.50
2022-09-07T03:24:12.772Z,14.50
2022-09-07T03:26:45.108Z,14.50
2022-09-07T03:29:12.607Z,14.50
2022-09-07T03:31:39.387Z,14.50
2022-09-07T03:34:07.192Z,14.50
2022-09-07T03:36:34.577Z,14.40
2022-09-07T03:39:01.426Z,14.40
2022-09-07T03:41:29.117Z,14.40
2022-09-07T03:43:56.259Z,14.30
2022-09-07T03:46:23.136Z,14.30
2022-09-07T03:48:50.426Z,14.30
2022-09-07T03:51:18.970Z,14.30
2022-09-07T03:53:47.300Z,14.30
2022-09-07T03:56:21.893Z,14.30
2022-09-07T03:58:50.115Z,14.30
2022-09-07T04:01:21.231Z,14.20
2022-09-07T04:03:48.585Z,14.30
2022-09-07T04:06:16.861Z,14.30
2022-09-07T04:08:44.861Z,14.20
2022-09-07T04:11:18.294Z,14.20
2022-09-07T04:13:46.025Z,14.20
2022-09-07T04:16:22.109Z,14.20
2022-09-07T04:18:50.293Z,14.20
2022-09-07T04:21:18.377Z,14.20
2022-09-07T04:23:45.437Z,14.20
2022-09-07T04:26:18.326Z,14.20
2022-09-07T04:28:45.993Z,14.20
2022-09-07T04:31:15.880Z,14.20
2022-09-07T04:33:44.876Z,14.20
2022-09-07T04:36:12.892Z,14.20
2022-09-07T04:38:40.030Z,14.20
2022-09-07T04:41:18.668Z,14.20
2022-09-07T04:43:46.900Z,14.30
2022-09-07T04:46:21.958Z,14.30
2022-09-07T04:48:51.124Z,14.30
2022-09-07T04:51:19.217Z,14.40
2022-09-07T04:53:50.090Z,14.40
2022-09-07T04:56:18.759Z,14.40
2022-09-07T04:58:46.753Z,14.50
2022-09-07T05:01:17.753Z,14.50
2022-09-07T05:03:46.130Z,14.60
2022-09-07T05:06:14.889Z,14.70
2022-09-07T05:08:45.710Z,14.70
2022-09-07T05:11:14.627Z,14.80
2022-09-07T05:13:41.586Z,14.80
2022-09-07T05:16:21.369Z,14.90
2022-09-07T05:18:55.255Z,14.90
2022-09-07T05:21:25.983Z,14.90
2022-09-07T05:23:56.125Z,15.00
2022-09-07T05:26:30.217Z,15.10
2022-09-07T05:31:45.905Z,15.20
2022-09-07T05:36:55.620Z,15.40
2022-09-07T05:39:22.454Z,15.50
2022-09-07T05:41:49.619Z,15.60
2022-09-07T05:47:04.128Z,15.60
2022-09-07T05:49:32.337Z,15.70
2022-09-07T05:51:59.144Z,15.70
2022-09-07T05:54:26.113Z,15.80
2022-09-07T05:56:52.893Z,15.80
2022-09-07T05:59:19.730Z,15.90
2022-09-07T06:01:46.566Z,15.90
2022-09-07T06:04:13.384Z,16.00
2022-09-07T06:06:40.210Z,16.00
2022-09-07T06:09:07.919Z,16.00
2022-09-07T06:11:36.531Z,16.10
2022-09-07T06:14:03.303Z,16.20
2022-09-07T06:16:33.744Z,16.20
2022-09-07T06:19:06.670Z,16.30
2022-09-07T06:21:38.455Z,16.50
2022-09-07T06:24:06.768Z,16.70
2022-09-07T06:26:33.833Z,16.80
2022-09-07T06:29:03.358Z,16.90
2022-09-07T06:31:30.754Z,17.00
2022-09-07T06:33:58.708Z,17.10
2022-09-07T06:36:27.846Z,17.20
2022-09-07T06:38:58.903Z,17.30
2022-09-07T06:44:15.598Z,17.50
2022-09-07T06:49:29.207Z,17.80
2022-09-07T06:51:56.109Z,18.00
2022-09-07T06:57:10.017Z,18.30
2022-09-07T06:59:38.596Z,18.50
2022-09-07T07:02:07.145Z,18.60
2022-09-07T07:04:39.613Z,18.90
2022-09-07T07:07:12.186Z,19.10
2022-09-07T07:09:39.880Z,19.40
2022-09-07T07:12:06.900Z,19.60
2022-09-07T07:14:36.484Z,19.70
2022-09-07T07:17:05.484Z,20.00
2022-09-07T07:19:32.294Z,20.10
2022-09-07T07:22:18.324Z,20.10
2022-09-07T07:24:45.821Z,20.30
2022-09-07T07:27:12.610Z,20.50
2022-09-07T07:29:39.360Z,20.80
2022-09-07T07:32:06.165Z,20.90
2022-09-07T07:34:33.025Z,20.90
2022-09-07T07:36:59.919Z,20.90
2022-09-07T07:42:13.367Z,20.80
2022-09-07T07:44:40.115Z,20.80
2022-09-07T07:47:06.988Z,20.80
2022-09-07T07:49:33.717Z,20.90
2022-09-07T07:54:48.068Z,21.20
2022-09-07T07:57:16.721Z,21.40
2022-09-07T07:59:43.440Z,21.60
2022-09-07T08:02:16.333Z,21.60
2022-09-07T08:04:43.483Z,21.60
2022-09-07T08:07:15.640Z,21.60
2022-09-07T08:09:45.568Z,21.80
2022-09-07T08:12:18.980Z,22.10
2022-09-07T08:14:48.118Z,22.30
2022-09-07T08:17:17.333Z,22.50
2022-09-07T08:19:45.231Z,22.70
2022-09-07T08:22:13.184Z,22.90
2022-09-07T08:24:40.253Z,23.00
2022-09-07T08:27:08.981Z,23.10
2022-09-07T08:29:35.855Z,23.30
2022-09-07T08:32:06.376Z,23.20
2022-09-07T08:34:36.122Z,23.10
2022-09-07T08:37:03.465Z,23.30
2022-09-07T08:39:30.961Z,23.30
2022-09-07T08:42:37.577Z,23.40
2022-09-07T08:45:11.692Z,23.50
2022-09-07T08:47:47.726Z,23.70
2022-09-07T08:50:40.409Z,23.90
2022-09-07T08:53:16.377Z,24.10
2022-09-07T08:55:55.320Z,24.20
2022-09-07T08:58:50.579Z,24.20
2022-09-07T09:01:41.181Z,24.20
2022-09-07T09:04:24.737Z,24.20
2022-09-07T09:07:28.969Z,24.50
2022-09-07T09:10:33.346Z,24.60
2022-09-07T09:13:35.584Z,24.70
2022-09-07T09:16:14.252Z,24.90
2022-09-07T09:18:46.401Z,25.00
2022-09-07T09:21:18.604Z,25.20
2022-09-07T09:23:52.085Z,25.20
2022-09-07T09:26:28.555Z,25.30
2022-09-07T09:28:55.286Z,25.30
2022-09-07T09:31:29.319Z,25.20
2022-09-07T09:34:05.048Z,25.30
2022-09-07T09:36:39.846Z,25.40
2022-09-07T09:39:38.108Z,25.50
2022-09-07T09:42:22.263Z,25.60
2022-09-07T09:44:50.187Z,25.60
2022-09-07T09:47:32.606Z,25.80
2022-09-07T09:50:06.624Z,25.70
2022-09-07T09:52:47.570Z,25.80
2022-09-07T09:55:37.469Z,25.80
2022-09-07T10:01:35.979Z,25.90
2022-09-07T10:04:25.134Z,26.10
2022-09-07T10:07:25.786Z,26.30
2022-09-07T10:10:16.030Z,26.60
2022-09-07T10:12:46.083Z,26.80
2022-09-07T10:15:40.017Z,26.90
2022-09-07T10:18:18.531Z,27.10
2022-09-07T10:20:45.442Z,27.30
2022-09-07T10:23:27.397Z,27.50
2022-09-07T10:25:54.095Z,27.50
2022-09-07T10:28:24.446Z,27.50
2022-09-07T10:31:22.033Z,27.40
2022-09-07T10:34:26.441Z,27.50
2022-09-07T10:37:10.184Z,27.70
2022-09-07T10:39:43.767Z,27.40
2022-09-07T10:42:29.454Z,27.10
2022-09-07T10:45:19.069Z,26.90
2022-09-07T10:48:06.831Z,26.80
2022-09-07T10:50:50.036Z,26.90
2022-09-07T10:57:31.206Z,26.80
2022-09-07T11:00:12.853Z,26.70
2022-09-07T11:03:30.121Z,26.80
2022-09-07T11:06:21.928Z,27.40
2022-09-07T11:09:16.732Z,27.90
2022-09-07T11:12:17.330Z,28.10
2022-09-07T11:15:02.093Z,28.20
2022-09-07T11:17:30.793Z,28.10
2022-09-07T11:20:28.594Z,28.20
2022-09-07T11:23:28.191Z,28.20
2022-09-07T11:26:01.220Z,28.20
2022-09-07T11:31:48.456Z,27.90
2022-09-07T11:34:55.439Z,28.20
2022-09-07T11:37:47.027Z,28.30
2022-09-07T11:40:31.532Z,28.50
2022-09-07T11:43:24.674Z,28.70
2022-09-07T11:46:04.692Z,29.00
2022-09-07T11:48:48.421Z,29.20
2022-09-07T11:51:26.455Z,29.50
2022-09-07T11:54:03.757Z,29.60
2022-09-07T11:56:38.201Z,29.60
2022-09-07T11:59:36.616Z,29.30
2022-09-07T12:03:00.226Z,29.10
2022-09-07T12:06:03.933Z,29.20
2022-09-07T12:09:21.887Z,29.40
2022-09-07T12:12:42.034Z,29.20
2022-09-07T12:15:44.188Z,29.20
2022-09-07T12:18:28.782Z,29.40
2022-09-07T12:20:55.752Z,29.50
2022-09-07T12:23:31.311Z,29.70
2022-09-07T12:26:35.500Z,29.80
2022-09-07T12:29:02.131Z,29.90
2022-09-07T12:32:52.427Z,30.00
2022-09-07T12:34:53.586Z,30.20
2022-09-07T12:37:39.945Z,30.50
2022-09-07T12:40:34.461Z,30.60
2022-09-07T12:43:13.385Z,30.20
2022-09-07T12:45:40.045Z,30.10
2022-09-07T12:48:15.871Z,30.30
2022-09-07T12:51:03.603Z,30.40
2022-09-07T12:53:33.964Z,30.70
2022-09-07T12:56:28.091Z,30.80
2022-09-07T12:59:20.332Z,30.90
2022-09-07T13:02:22.513Z,30.90
2022-09-07T13:05:21.547Z,31.20
2022-09-07T13:08:21.229Z,31.30
2022-09-07T13:10:48.066Z,31.60
2022-09-07T13:13:14.681Z,31.90
2022-09-07T13:16:13.647Z,32.20
2022-09-07T13:18:46.243Z,32.30
2022-09-07T13:21:14.859Z,32.10
2022-09-07T13:24:45.755Z,32.10
2022-09-07T13:27:10.376Z,31.90
2022-09-07T13:29:48.262Z,31.50
2022-09-07T13:35:25.198Z,31.70
2022-09-07T13:38:03.913Z,31.50
2022-09-07T13:40:39.051Z,30.90
2022-09-07T13:43:16.292Z,30.80
2022-09-07T13:45:55.063Z,30.90
2022-09-07T13:49:06.694Z,31.10
2022-09-07T13:51:54.087Z,31.10
2022-09-07T13:55:12.594Z,31.10
2022-09-07T13:57:46.844Z,30.90
2022-09-07T14:00:16.775Z,30.80
2022-09-07T14:02:44.156Z,31.00
2022-09-07T14:05:18.401Z,31.30
2022-09-07T14:07:46.172Z,31.10
2022-09-07T14:10:23.117Z,31.10
2022-09-07T14:13:06.310Z,32.00
2022-09-07T14:15:40.659Z,34.20
2022-09-07T14:18:29.631Z,36.40
2022-09-07T14:20:57.308Z,38.40
2022-09-07T14:23:29.841Z,39.90
2022-09-07T14:26:22.956Z,41.30
2022-09-07T14:28:54.197Z,42.00
2022-09-07T14:31:24.148Z,42.20
2022-09-07T14:34:00.842Z,42.00
2022-09-07T14:36:46.461Z,40.50
2022-09-07T14:39:16.681Z,38.60
2022-09-07T14:41:44.484Z,36.80
2022-09-07T14:44:35.415Z,35.60
2022-09-07T14:47:35.647Z,34.40
2022-09-07T14:50:10.590Z,33.50
2022-09-07T14:55:45.415Z,32.00
2022-09-07T14:58:15.766Z,32.00
2022-09-07T15:03:43.644Z,31.70
2022-09-07T15:07:01.028Z,31.50
2022-09-07T15:08:59.367Z,31.40
2022-09-07T15:11:34.281Z,31.10
2022-09-07T15:14:20.493Z,31.20
2022-09-07T15:19:50.589Z,32.00
2022-09-07T15:22:19.364Z,32.80
2022-09-07T15:24:50.548Z,33.70
2022-09-07T15:27:29.878Z,34.20
2022-09-07T15:29:57.105Z,34.10
2022-09-07T15:32:24.776Z,33.80
2022-09-07T15:34:52.317Z,33.40
2022-09-07T15:40:22.758Z,32.60
2022-09-07T15:43:19.667Z,32.10
2022-09-07T15:45:39.675Z,31.80
2022-09-07T15:48:07.519Z,31.50
2022-09-07T15:50:35.180Z,31.40
2022-09-07T15:53:03.137Z,31.20
2022-09-07T15:55:33.093Z,31.00
2022-09-07T15:58:11.586Z,30.80
2022-09-07T16:00:43.685Z,30.60
2022-09-07T16:03:12.344Z,30.30
2022-09-07T16:05:44.456Z,30.00
2022-09-07T16:08:32.720Z,29.80
2022-09-07T16:11:18.459Z,29.50
2022-09-07T16:13:48.162Z,29.10
2022-09-07T16:16:16.240Z,28.80
2022-09-07T16:18:46.917Z,28.60
2022-09-07T16:21:15.552Z,28.40
2022-09-07T16:23:47.765Z,28.30
2022-09-07T16:26:16.555Z,28.20
2022-09-07T16:28:48.915Z,28.10
2022-09-07T16:31:26.369Z,28.10
2022-09-07T16:33:54.734Z,28.00
2022-09-07T16:36:25.488Z,28.00
2022-09-07T16:38:59.862Z,27.90
2022-09-07T16:41:31.831Z,27.80
2022-09-07T16:43:59.764Z,27.70
2022-09-07T16:46:30.847Z,27.60
2022-09-07T16:48:58.051Z,27.50
2022-09-07T16:51:24.926Z,27.30
2022-09-07T16:53:55.562Z,27.10
2022-09-07T16:56:25.867Z,26.90
2022-09-07T16:59:06.060Z,26.80
2022-09-07T17:01:35.465Z,26.70
2022-09-07T17:04:08.020Z,26.50
2022-09-07T17:06:37.853Z,26.40
2022-09-07T17:09:05.711Z,26.20
2022-09-07T17:11:35.541Z,26.10
2022-09-07T17:14:05.556Z,25.90
2022-09-07T17:16:37.292Z,25.70
2022-09-07T17:21:53.545Z,25.40
2022-09-07T17:24:20.667Z,25.20
2022-09-07T17:26:47.782Z,25.10
2022-09-07T17:29:15.034Z,24.90
2022-09-07T17:34:31.923Z,24.70
2022-09-07T17:37:00.497Z,24.50
2022-09-07T17:39:27.762Z,24.40
2022-09-07T17:41:54.913Z,24.20
2022-09-07T17:44:23.240Z,24.10
2022-09-07T17:46:51.261Z,24.10
2022-09-07T17:49:18.040Z,23.90
2022-09-07T17:51:45.886Z,23.80
2022-09-07T17:54:17.280Z,23.70
2022-09-07T17:56:45.037Z,23.50
2022-09-07T18:01:59.643Z,23.30
2022-09-07T18:04:27.180Z,23.20
2022-09-07T18:06:54.960Z,23.10
2022-09-07T18:09:21.816Z,23.00
2022-09-07T18:11:50.047Z,22.90
2022-09-07T18:14:18.579Z,22.80
2022-09-07T18:16:49.364Z,22.70
2022-09-07T18:19:18.227Z,22.70
2022-09-07T18:21:46.056Z,22.60
2022-09-07T18:24:24.037Z,22.60
2022-09-07T18:26:53.570Z,22.60
2022-09-07T18:29:30.188Z,22.60
2022-09-07T18:32:00.280Z,22.60
2022-09-07T18:34:28.569Z,22.50
2022-09-07T18:36:55.417Z,22.50
2022-09-07T18:39:22.660Z,22.40
2022-09-07T18:41:49.404Z,22.30
2022-09-07T18:47:02.862Z,22.20
2022-09-07T18:49:29.619Z,22.10
2022-09-07T18:54:43.028Z,21.80
2022-09-07T18:57:09.733Z,21.80
2022-09-07T18:59:36.463Z,21.70
2022-09-07T19:02:06.252Z,21.70
2022-09-07T19:07:24.885Z,21.60
2022-09-07T19:09:54.314Z,21.50
2022-09-07T19:12:21.057Z,21.50
2022-09-07T19:14:47.749Z,21.40
2022-09-07T19:17:14.476Z,21.40
2022-09-07T19:19:41.971Z,21.30
2022-09-07T19:22:08.669Z,21.30
2022-09-07T19:24:35.378Z,21.20
2022-09-07T19:27:02.080Z,21.10
2022-09-07T19:29:29.017Z,21.10
2022-09-07T19:32:05.350Z,21.00
2022-09-07T19:34:41.428Z,21.00
2022-09-07T19:37:10.811Z,20.90
2022-09-07T19:39:37.956Z,20.80
2022-09-07T19:42:06.510Z,20.80
2022-09-07T19:44:33.555Z,20.70
2022-09-07T19:47:00.749Z,20.70
2022-09-07T19:49:28.489Z,20.70
2022-09-07T19:51:55.546Z,20.60
2022-09-07T19:54:22.454Z,20.60
2022-09-07T19:56:49.164Z,20.50
2022-09-07T19:59:16.084Z,20.50
2022-09-07T20:01:46.224Z,20.40
2022-09-07T20:04:20.455Z,20.40
2022-09-07T20:06:49.933Z,20.40
2022-09-07T20:09:19.705Z,20.30
2022-09-07T20:11:47.950Z,20.30
2022-09-07T20:14:16.323Z,20.30
2022-09-07T20:16:43.819Z,20.20
2022-09-07T20:19:14.654Z,20.20
2022-09-07T20:21:42.322Z,20.20
2022-09-07T20:24:12.176Z,20.20
2022-09-07T20:26:39.150Z,20.10
2022-09-07T20:29:26.107Z,20.10
2022-09-07T20:31:53.619Z,20.00
2022-09-07T20:34:20.476Z,20.00
2022-09-07T20:36:50.419Z,20.00
2022-09-07T20:39:17.537Z,19.90
2022-09-07T20:41:44.375Z,19.90
2022-09-07T20:44:11.352Z,19.90
2022-09-07T20:46:38.413Z,19.80
2022-09-07T20:49:05.286Z,19.90
2022-09-07T20:51:32.603Z,19.80
2022-09-07T20:53:59.482Z,19.80
2022-09-07T20:56:29.340Z,19.80
2022-09-07T20:59:01.833Z,19.80
2022-09-07T21:01:30.863Z,19.70
2022-09-07T21:04:00.448Z,19.70
2022-09-07T21:06:28.633Z,19.60
2022-09-07T21:08:57.206Z,19.60
2022-09-07T21:11:28.278Z,19.60
2022-09-07T21:14:06.018Z,19.60
2022-09-07T21:16:34.198Z,19.70
2022-09-07T21:19:03.132Z,19.70
2022-09-07T21:21:40.370Z,19.70
2022-09-07T21:24:19.722Z,19.70
2022-09-07T21:26:48.721Z,19.70
2022-09-07T21:29:23.154Z,19.70
2022-09-07T21:31:53.260Z,19.60
2022-09-07T21:34:20.602Z,19.60
2022-09-07T21:36:47.539Z,19.60
2022-09-07T21:39:15.925Z,19.60
2022-09-07T21:41:44.299Z,19.60
2022-09-07T21:44:15.925Z,19.70
2022-09-07T21:46:43.375Z,19.70
2022-09-07T21:49:10.786Z,19.60
2022-09-07T21:51:37.923Z,19.60
2022-09-07T21:54:04.637Z,19.50
2022-09-07T21:56:31.791Z,19.50
2022-09-07T21:59:01.284Z,19.40
2022-09-07T22:01:29.770Z,19.40
2022-09-07T22:04:00.727Z,19.30
2022-09-07T22:06:28.355Z,19.30
2022-09-07T22:08:55.777Z,19.20
2022-09-07T22:11:26.373Z,19.20
2022-09-07T22:14:03.106Z,19.10
2022-09-07T22:16:31.928Z,19.00
2022-09-07T22:18:58.862Z,19.00
2022-09-07T22:21:28.723Z,19.00
2022-09-07T22:23:59.641Z,19.10
2022-09-07T22:26:30.199Z,19.00
2022-09-07T22:28:58.008Z,19.00
2022-09-07T22:31:31.819Z,19.00
2022-09-07T22:34:01.513Z,19.00
2022-09-07T22:36:38.699Z,18.90
2022-09-07T22:39:10.179Z,18.80
2022-09-07T22:41:39.190Z,18.80
2022-09-07T22:44:09.994Z,18.70
2022-09-07T22:46:39.431Z,18.70
2022-09-07T22:49:07.688Z,18.70
2022-09-07T22:51:34.553Z,18.70
2022-09-07T22:54:01.606Z,18.70
2022-09-07T22:56:31.711Z,18.70
2022-09-07T22:59:01.982Z,18.70
2022-09-07T23:01:30.855Z,18.70
2022-09-07T23:03:58.377Z,18.70
2022-09-07T23:06:30.232Z,18.70
2022-09-07T23:09:00.863Z,18.60
2022-09-07T23:11:28.386Z,18.60
2022-09-07T23:13:59.462Z,18.60
2022-09-07T23:16:27.971Z,18.60
2022-09-07T23:18:57.979Z,18.60
2022-09-07T23:21:25.576Z,18.60
2022-09-07T23:23:55.597Z,18.60
2022-09-07T23:26:24.598Z,18.60
2022-09-07T23:28:54.200Z,18.50
2022-09-07T23:31:22.735Z,18.50
2022-09-07T23:33:50.176Z,18.50
2022-09-07T23:36:18.311Z,18.50
2022-09-07T23:38:46.379Z,18.40
2022-09-07T23:41:14.101Z,18.40
2022-09-07T23:43:41.772Z,18.40
2022-09-07T23:46:10.544Z,18.40
2022-09-07T23:48:37.437Z,18.40
2022-09-07T23:51:04.566Z,18.20
2022-09-07T23:53:31.549Z,18.20
2022-09-07T23:55:58.582Z,18.20
2022-09-07T23:58:25.382Z,18.20
